Time;durP1;ratioP1;P1;durP2;ratioP2;P2;SDS_P1;SDS_P2;PMS_P1;PMS_P2;Temp;Humidity;BMP_temperature;BMP_pressure;BME280_temperature;BME280_humidity;BME280_pressure;Samples;Min_cycle;Max_cycle;Signal;HPM_P1;HPM_P2
2023/02/15 00:02:03;;;;;;;99.90;28.95;;;;;;;;;;5072486;28;20225;-63
2023/02/15 00:04:45;;;;;;;100.05;28.88;;;;;;;;;;5072548;28;20222;-63
2023/02/15 00:07:13;;;;;;;92.13;27.75;;;;;;;;;;5072545;28;20207;-62
2023/02/15 00:09:40;;;;;;;100.38;28.83;;;;;;;;;;5072053;28;20578;-63
2023/02/15 00:12:07;;;;;;;95.07;24.38;;;;;;;;;;5072262;28;20229;-63
2023/02/15 00:14:34;;;;;;;92.35;25.23;;;;;;;;;;5072094;28;20229;-63
2023/02/15 00:17:03;;;;;;;87.40;21.20;;;;;;;;;;5072199;28;20209;-62
2023/02/15 00:19:30;;;;;;;93.07;23.90;;;;;;;;;;5072056;28;20201;-62
2023/02/15 00:21:57;;;;;;;93.30;24.30;;;;;;;;;;5071923;28;20197;-62
2023/02/15 00:24:24;;;;;;;88.95;23.02;;;;;;;;;;5071389;28;20319;-62
2023/02/15 00:26:51;;;;;;;90.20;21.60;;;;;;;;;;5072219;28;20227;-63
2023/02/15 00:29:19;;;;;;;85.28;20.98;;;;;;;;;;5071617;28;20209;-63
2023/02/15 00:31:47;;;;;;;89.95;22.48;;;;;;;;;;5071919;28;20687;-63
2023/02/15 00:34:16;;;;;;;87.93;23.70;;;;;;;;;;5072067;28;20225;-63
2023/02/15 00:36:43;;;;;;;94.65;25.10;;;;;;;;;;5071927;28;20669;-62
2023/02/15 00:39:11;;;;;;;100.80;28.65;;;;;;;;;;5071644;28;20205;-62
2023/02/15 00:41:38;;;;;;;92.30;23.73;;;;;;;;;;5071869;28;20201;-63
2023/02/15 00:44:05;;;;;;;99.30;25.10;;;;;;;;;;5072046;28;20225;-62
2023/02/15 00:46:32;;;;;;;89.72;22.17;;;;;;;;;;5072027;28;20301;-62
2023/02/15 00:48:59;;;;;;;96.45;25.33;;;;;;;;;;5071386;28;20693;-62
2023/02/15 00:51:28;;;;;;;93.35;23.98;;;;;;;;;;5071908;28;20205;-62
2023/02/15 00:53:55;;;;;;;95.07;24.50;;;;;;;;;;5071995;28;20239;-63
2023/02/15 00:56:22;;;;;;;96.57;26.55;;;;;;;;;;5071656;28;20208;-62
2023/02/15 00:58:49;;;;;;;93.53;22.73;;;;;;;;;;5071400;28;20215;-62
2023/02/15 01:01:17;;;;;;;95.15;24.95;;;;;;;;;;5071871;28;20228;-63
2023/02/15 01:03:46;;;;;;;97.65;25.35;;;;;;;;;;5071794;28;20201;-62
2023/02/15 01:06:13;;;;;;;97.40;24.67;;;;;;;;;;5071664;28;20205;-62
2023/02/15 01:08:42;;;;;;;98.50;25.60;;;;;;;;;;5071281;28;20570;-62
2023/02/15 01:11:10;;;;;;;91.70;22.67;;;;;;;;;;5071934;28;20208;-62
2023/02/15 01:13:37;;;;;;;92.88;23.88;;;;;;;;;;5071561;28;20229;-62
2023/02/15 01:16:05;;;;;;;88.20;21.40;;;;;;;;;;5071499;28;20205;-62
2023/02/15 01:18:32;;;;;;;92.00;22.65;;;;;;;;;;5071545;28;20201;-62
2023/02/15 01:20:59;;;;;;;91.55;23.80;;;;;;;;;;5071636;28;20205;-62
2023/02/15 01:23:26;;;;;;;89.90;24.10;;;;;;;;;;5071461;28;20209;-62
2023/02/15 01:25:55;;;;;;;89.47;24.30;;;;;;;;;;5071539;28;20269;-62
2023/02/15 01:28:22;;;;;;;90.53;23.15;;;;;;;;;;5071479;28;20205;-62
2023/02/15 01:30:49;;;;;;;87.40;21.75;;;;;;;;;;5071526;28;20296;-62
2023/02/15 01:33:18;;;;;;;87.55;21.90;;;;;;;;;;5071554;28;20719;-62
2023/02/15 01:35:46;;;;;;;88.82;20.08;;;;;;;;;;5075113;28;20229;-62
2023/02/15 01:38:13;;;;;;;95.28;24.13;;;;;;;;;;5075416;28;20213;-62
2023/02/15 01:40:40;;;;;;;93.10;22.98;;;;;;;;;;5075128;28;20201;-62
2023/02/15 01:43:11;;;;;;;88.85;20.05;;;;;;;;;;5075361;28;20201;-62
2023/02/15 01:45:39;;;;;;;85.35;18.73;;;;;;;;;;5075054;28;20275;-62
2023/02/15 01:48:07;;;;;;;81.15;18.45;;;;;;;;;;5074941;28;20215;-62
2023/02/15 01:50:35;;;;;;;81.78;18.58;;;;;;;;;;5074624;28;20298;-62
2023/02/15 01:53:05;;;;;;;83.90;17.55;;;;;;;;;;5075064;28;20225;-62
2023/02/15 01:55:35;;;;;;;82.80;19.50;;;;;;;;;;5075052;28;20221;-62
2023/02/15 01:58:02;;;;;;;84.47;20.25;;;;;;;;;;5074775;28;20692;-62
2023/02/15 02:00:30;;;;;;;89.25;19.35;;;;;;;;;;5074599;28;20211;-62
2023/02/15 02:03:16;;;;;;;82.95;19.90;;;;;;;;;;5074566;28;20201;-62
2023/02/15 02:05:43;;;;;;;90.15;20.90;;;;;;;;;;5074843;28;20597;-62
2023/02/15 02:08:11;;;;;;;86.18;21.42;;;;;;;;;;5074786;28;20205;-62
2023/02/15 02:10:38;;;;;;;95.43;24.13;;;;;;;;;;5074484;28;20581;-62
2023/02/15 02:13:06;;;;;;;106.93;26.63;;;;;;;;;;5074752;28;20232;-62
2023/02/15 02:15:39;;;;;;;98.82;24.70;;;;;;;;;;5074315;28;20593;-62
2023/02/15 02:18:13;;;;;;;101.55;25.25;;;;;;;;;;5074667;28;20211;-62
2023/02/15 02:20:50;;;;;;;97.43;24.20;;;;;;;;;;5074551;28;20216;-62
2023/02/15 02:23:29;;;;;;;96.70;24.75;;;;;;;;;;5074521;28;20235;-62
2023/02/15 02:26:18;;;;;;;107.13;25.77;;;;;;;;;;5074210;28;20592;-62
2023/02/15 02:29:01;;;;;;;99.45;24.92;;;;;;;;;;5074184;28;20209;-62
2023/02/15 02:31:46;;;;;;;92.55;24.35;;;;;;;;;;5074291;28;20215;-62
2023/02/15 02:34:18;;;;;;;94.32;24.85;;;;;;;;;;5073865;28;20233;-62
2023/02/15 02:36:50;;;;;;;94.40;23.38;;;;;;;;;;5074517;28;20216;-63
2023/02/15 02:39:23;;;;;;;89.63;23.20;;;;;;;;;;5074133;28;20211;-62
2023/02/15 02:41:57;;;;;;;97.32;25.52;;;;;;;;;;5074143;28;20216;-62
2023/02/15 02:44:27;;;;;;;94.07;23.63;;;;;;;;;;5074020;28;20225;-62
2023/02/15 02:46:55;;;;;;;104.57;27.08;;;;;;;;;;5073216;28;20209;-62
2023/02/15 02:49:32;;;;;;;96.45;25.98;;;;;;;;;;5073605;28;20677;-62
2023/02/15 02:52:00;;;;;;;92.47;23.40;;;;;;;;;;5073992;28;20205;-62
2023/02/15 02:54:27;;;;;;;94.22;22.00;;;;;;;;;;5073751;28;20267;-62
2023/02/15 02:56:54;;;;;;;88.75;23.15;;;;;;;;;;5072275;28;20211;-62
2023/02/15 02:59:24;;;;;;;91.47;23.55;;;;;;;;;;5073600;28;20208;-62
2023/02/15 03:01:53;;;;;;;94.45;23.15;;;;;;;;;;5073661;28;20213;-62
2023/02/15 03:04:22;;;;;;;92.72;23.05;;;;;;;;;;5073463;28;20226;-62
2023/02/15 03:06:52;;;;;;;96.20;24.50;;;;;;;;;;5073508;28;20206;-62
2023/02/15 03:09:22;;;;;;;94.72;25.35;;;;;;;;;;5073676;28;20208;-62
2023/02/15 03:11:49;;;;;;;92.15;23.98;;;;;;;;;;5073510;28;20212;-62
2023/02/15 03:14:17;;;;;;;90.57;24.05;;;;;;;;;;5073236;28;20229;-62
2023/02/15 03:16:45;;;;;;;101.28;25.67;;;;;;;;;;5073388;28;20209;-62
2023/02/15 03:19:14;;;;;;;100.47;27.00;;;;;;;;;;5073008;28;20205;-62
2023/02/15 03:21:49;;;;;;;98.05;26.48;;;;;;;;;;5073414;28;20212;-62
2023/02/15 03:24:19;;;;;;;95.18;26.48;;;;;;;;;;5073196;28;20293;-62
2023/02/15 03:26:47;;;;;;;98.10;26.02;;;;;;;;;;5073280;28;20205;-62
2023/02/15 03:29:17;;;;;;;93.88;25.48;;;;;;;;;;5072884;28;20207;-62
2023/02/15 03:31:45;;;;;;;93.22;24.05;;;;;;;;;;5072988;28;20685;-62
2023/02/15 03:34:14;;;;;;;99.28;26.45;;;;;;;;;;5072827;28;20716;-62
2023/02/15 03:36:45;;;;;;;99.60;25.77;;;;;;;;;;5073123;28;20205;-63
2023/02/15 03:39:15;;;;;;;95.60;25.77;;;;;;;;;;5072685;28;20274;-62
2023/02/15 03:41:46;;;;;;;98.47;26.90;;;;;;;;;;5072946;28;20207;-62
2023/02/15 03:44:17;;;;;;;106.13;25.85;;;;;;;;;;5072740;28;20236;-62
2023/02/15 03:46:47;;;;;;;99.10;24.08;;;;;;;;;;5073067;28;20216;-62
2023/02/15 03:49:18;;;;;;;101.40;25.27;;;;;;;;;;5072957;28;20201;-62
2023/02/15 03:51:48;;;;;;;95.25;23.55;;;;;;;;;;5072745;28;20209;-62
2023/02/15 03:54:38;;;;;;;95.93;24.70;;;;;;;;;;5072764;28;20240;-62
2023/02/15 04:02:39;;;;;;;94.18;23.40;;;;;;;;;;5051506;28;20201;-62
2023/02/15 04:05:07;;;;;;;95.43;23.10;;;;;;;;;;5072278;28;20310;-62
2023/02/15 04:07:34;;;;;;;98.72;24.00;;;;;;;;;;5072330;28;20209;-62
2023/02/15 04:12:47;;;;;;;96.28;24.13;;;;;;;;;;5072427;28;20220;-62
2023/02/15 04:18:04;;;;;;;84.85;20.95;;;;;;;;;;5061383;28;20670;-62
2023/02/15 04:26:04;;;;;;;90.32;22.23;;;;;;;;;;5071991;28;20265;-62
2023/02/15 04:28:32;;;;;;;84.57;21.08;;;;;;;;;;5072143;28;20209;-62
2023/02/15 04:30:59;;;;;;;89.53;21.63;;;;;;;;;;5072173;28;20226;-62
2023/02/15 04:33:26;;;;;;;101.38;26.75;;;;;;;;;;5072030;28;20229;-62
2023/02/15 04:35:54;;;;;;;105.60;26.75;;;;;;;;;;5071954;28;20232;-62
2023/02/15 04:38:22;;;;;;;102.78;26.02;;;;;;;;;;5071956;28;20700;-62
2023/02/15 04:40:51;;;;;;;94.47;22.45;;;;;;;;;;5071828;28;20209;-62
2023/02/15 04:43:18;;;;;;;87.75;22.10;;;;;;;;;;5072034;28;20201;-62
2023/02/15 04:45:50;;;;;;;86.45;22.38;;;;;;;;;;5071797;28;20228;-62
2023/02/15 04:48:17;;;;;;;94.40;25.17;;;;;;;;;;5071726;28;20205;-62
2023/02/15 04:50:44;;;;;;;90.05;23.92;;;;;;;;;;5071791;28;20201;-62
2023/02/15 04:53:12;;;;;;;89.05;20.73;;;;;;;;;;5071996;28;20221;-62
2023/02/15 04:55:39;;;;;;;88.95;21.88;;;;;;;;;;5071677;28;20216;-62
2023/02/15 04:58:06;;;;;;;91.80;23.40;;;;;;;;;;5071871;28;20213;-63
2023/02/15 05:00:33;;;;;;;87.40;22.40;;;;;;;;;;5071670;28;20233;-63
2023/02/15 05:03:02;;;;;;;90.10;22.70;;;;;;;;;;5071803;28;20221;-62
2023/02/15 05:05:29;;;;;;;88.60;22.40;;;;;;;;;;5071572;28;20221;-62
2023/02/15 05:07:56;;;;;;;84.95;20.73;;;;;;;;;;5071541;28;20209;-62
2023/02/15 05:10:24;;;;;;;86.65;22.08;;;;;;;;;;5074806;28;20204;-62
2023/02/15 05:12:51;;;;;;;90.53;20.33;;;;;;;;;;5075822;28;20207;-63
2023/02/15 05:15:18;;;;;;;85.80;21.50;;;;;;;;;;5075593;28;20232;-63
2023/02/15 05:17:45;;;;;;;90.72;23.10;;;;;;;;;;5075645;28;20674;-63
2023/02/15 05:20:13;;;;;;;89.57;20.27;;;;;;;;;;5075491;28;20212;-63
2023/02/15 05:22:41;;;;;;;91.22;22.27;;;;;;;;;;5075518;28;20205;-63
2023/02/15 05:30:39;;;;;;;89.30;20.63;;;;;;;;;;5075457;28;20566;-63
2023/02/15 05:33:06;;;;;;;96.07;22.45;;;;;;;;;;5075655;28;20211;-63
2023/02/15 05:35:35;;;;;;;88.55;22.05;;;;;;;;;;5075238;28;20236;-63
2023/02/15 05:38:02;;;;;;;90.28;22.65;;;;;;;;;;5075334;28;20590;-63
2023/02/15 05:40:29;;;;;;;88.25;21.88;;;;;;;;;;5075080;28;20212;-64
2023/02/15 05:42:57;;;;;;;84.28;19.55;;;;;;;;;;5075251;28;20563;-63
2023/02/15 05:45:25;;;;;;;87.13;20.00;;;;;;;;;;5075237;28;20221;-63
2023/02/15 05:47:52;;;;;;;86.47;21.25;;;;;;;;;;5075207;28;20205;-63
2023/02/15 05:50:19;;;;;;;86.45;21.30;;;;;;;;;;5074841;28;20205;-63
2023/02/15 05:52:47;;;;;;;86.82;21.40;;;;;;;;;;5075050;28;20274;-63
2023/02/15 05:55:14;;;;;;;85.97;19.77;;;;;;;;;;5074692;28;20240;-63
2023/02/15 05:57:41;;;;;;;86.03;20.90;;;;;;;;;;5074732;28;20205;-64
2023/02/15 06:00:09;;;;;;;85.45;18.80;;;;;;;;;;5074460;28;20670;-63
2023/02/15 06:02:37;;;;;;;83.88;19.13;;;;;;;;;;5074730;28;20235;-64
2023/02/15 06:05:04;;;;;;;83.68;18.83;;;;;;;;;;5074628;28;20232;-63
2023/02/15 06:07:31;;;;;;;92.22;22.30;;;;;;;;;;5074802;28;20209;-64
2023/02/15 06:10:00;;;;;;;84.10;19.98;;;;;;;;;;5074240;28;20557;-63
2023/02/15 06:12:27;;;;;;;92.50;21.83;;;;;;;;;;5074802;28;20205;-63
2023/02/15 06:14:54;;;;;;;85.88;22.20;;;;;;;;;;5074473;28;20229;-63
2023/02/15 06:17:21;;;;;;;89.70;21.08;;;;;;;;;;5074612;28;20212;-64
2023/02/15 06:19:48;;;;;;;88.53;22.08;;;;;;;;;;5074007;28;20602;-63
2023/02/15 06:22:16;;;;;;;91.22;19.52;;;;;;;;;;5074414;28;20205;-64
2023/02/15 06:24:43;;;;;;;89.32;19.77;;;;;;;;;;5074341;28;20673;-63
2023/02/15 06:27:11;;;;;;;96.78;20.65;;;;;;;;;;5074558;28;20216;-63
2023/02/15 06:29:39;;;;;;;98.47;21.17;;;;;;;;;;5074062;28;20212;-63
2023/02/15 06:32:07;;;;;;;83.10;20.08;;;;;;;;;;5074203;28;20229;-64
2023/02/15 06:34:34;;;;;;;79.93;17.90;;;;;;;;;;5074062;28;20627;-64
2023/02/15 06:37:01;;;;;;;85.85;18.98;;;;;;;;;;5074028;28;20216;-63
2023/02/15 06:39:28;;;;;;;91.82;19.83;;;;;;;;;;5074101;28;20205;-63
2023/02/15 06:41:56;;;;;;;89.50;20.90;;;;;;;;;;5074218;28;20207;-63
2023/02/15 06:44:24;;;;;;;86.45;18.98;;;;;;;;;;5074152;28;20710;-63
2023/02/15 06:46:51;;;;;;;88.32;20.50;;;;;;;;;;5074130;28;20216;-63
2023/02/15 06:49:18;;;;;;;90.35;22.58;;;;;;;;;;5073593;28;20237;-64
2023/02/15 06:51:46;;;;;;;86.10;21.77;;;;;;;;;;5073885;28;20574;-63
2023/02/15 06:54:13;;;;;;;93.13;22.48;;;;;;;;;;5073931;28;20251;-63
2023/02/15 06:56:40;;;;;;;88.90;22.02;;;;;;;;;;5073797;28;20201;-63
2023/02/15 06:59:07;;;;;;;96.07;22.85;;;;;;;;;;5073521;28;20208;-63
2023/02/15 07:01:36;;;;;;;85.38;20.70;;;;;;;;;;5073711;28;20209;-63
2023/02/15 07:04:03;;;;;;;87.00;22.20;;;;;;;;;;5073760;28;20221;-63
2023/02/15 07:06:32;;;;;;;89.28;20.60;;;;;;;;;;5073813;28;20227;-63
2023/02/15 07:08:59;;;;;;;85.57;19.20;;;;;;;;;;5073599;28;20271;-61
2023/02/15 07:14:11;;;;;;;86.90;20.20;;;;;;;;;;5073392;28;20375;-62
2023/02/15 07:16:40;;;;;;;87.85;19.88;;;;;;;;;;5073293;28;20205;-64
2023/02/15 07:19:07;;;;;;;93.82;22.55;;;;;;;;;;5073050;28;20209;-64
2023/02/15 07:21:35;;;;;;;96.32;23.45;;;;;;;;;;5073533;28;20205;-62
2023/02/15 07:24:02;;;;;;;93.22;23.42;;;;;;;;;;5073309;28;20601;-63
2023/02/15 07:26:29;;;;;;;87.53;21.50;;;;;;;;;;5073220;28;20205;-62
2023/02/15 07:28:56;;;;;;;90.35;21.88;;;;;;;;;;5072876;28;20223;-62
2023/02/15 07:31:23;;;;;;;93.35;22.02;;;;;;;;;;5072874;28;20205;-62
2023/02/15 07:33:52;;;;;;;96.25;23.92;;;;;;;;;;5072790;28;20205;-62
2023/02/15 07:36:19;;;;;;;90.72;23.08;;;;;;;;;;5073190;28;20564;-62
2023/02/15 07:38:46;;;;;;;90.07;23.17;;;;;;;;;;5072781;28;20201;-62
2023/02/15 07:41:14;;;;;;;89.78;22.95;;;;;;;;;;5072877;28;20482;-62
2023/02/15 07:43:42;;;;;;;91.00;22.42;;;;;;;;;;5072618;28;20209;-62
2023/02/15 07:46:11;;;;;;;82.40;20.70;;;;;;;;;;5072897;28;20201;-63
2023/02/15 07:48:39;;;;;;;85.45;21.63;;;;;;;;;;5072349;28;20351;-62
2023/02/15 07:51:08;;;;;;;89.32;24.38;;;;;;;;;;5072829;28;20627;-68
2023/02/15 07:53:35;;;;;;;87.18;21.98;;;;;;;;;;5072702;28;20673;-63
2023/02/15 07:56:04;;;;;;;100.15;21.95;;;;;;;;;;5072361;28;20609;-63
2023/02/15 08:01:12;;;;;;;97.65;24.02;;;;;;;;;;5072162;28;20208;-63
2023/02/15 08:03:39;;;;;;;89.50;22.80;;;;;;;;;;5072299;28;20674;-64
2023/02/15 08:06:08;;;;;;;86.57;21.38;;;;;;;;;;5072440;28;20204;-63
2023/02/15 08:08:35;;;;;;;97.93;22.38;;;;;;;;;;5072192;28;20643;-64
2023/02/15 08:13:54;;;;;;;92.07;24.50;;;;;;;;;;5072248;28;20647;-64
2023/02/15 08:16:22;;;;;;;97.15;24.15;;;;;;;;;;5072252;28;20236;-63
2023/02/15 08:18:49;;;;;;;91.00;23.45;;;;;;;;;;5071819;28;20295;-64
2023/02/15 08:21:17;;;;;;;91.25;20.70;;;;;;;;;;5072042;28;20666;-63
2023/02/15 08:23:44;;;;;;;92.07;22.98;;;;;;;;;;5072041;28;20212;-64
2023/02/15 08:26:11;;;;;;;95.57;23.63;;;;;;;;;;5072496;28;20576;-64
2023/02/15 08:28:39;;;;;;;87.35;23.45;;;;;;;;;;5071797;28;20275;-64
2023/02/15 08:31:06;;;;;;;86.32;22.65;;;;;;;;;;5071954;28;20702;-64
2023/02/15 08:33:33;;;;;;;87.03;22.23;;;;;;;;;;5072274;28;20207;-64
2023/02/15 08:36:03;;;;;;;87.90;22.25;;;;;;;;;;5071848;28;20233;-64
2023/02/15 08:38:32;;;;;;;85.20;22.30;;;;;;;;;;5071842;28;20202;-64
2023/02/15 08:40:59;;;;;;;92.18;23.05;;;;;;;;;;5072013;28;20207;-63
2023/02/15 08:43:26;;;;;;;83.10;20.80;;;;;;;;;;5071189;28;20580;-64
2023/02/15 08:45:53;;;;;;;84.88;22.40;;;;;;;;;;5071987;28;20228;-64
2023/02/15 08:48:20;;;;;;;86.22;21.55;;;;;;;;;;5071660;28;20205;-64
2023/02/15 08:50:47;;;;;;;88.85;21.90;;;;;;;;;;5071686;28;20305;-63
2023/02/15 08:53:14;;;;;;;81.70;21.45;;;;;;;;;;5071770;28;20206;-64
2023/02/15 08:55:43;;;;;;;86.50;18.45;;;;;;;;;;5071681;28;20238;-64
2023/02/15 08:58:10;;;;;;;87.75;22.15;;;;;;;;;;5071553;28;20217;-64
2023/02/15 09:00:37;;;;;;;87.90;21.00;;;;;;;;;;5071425;28;20573;-64
2023/02/15 09:03:04;;;;;;;82.95;20.27;;;;;;;;;;5071668;28;20209;-64
2023/02/15 09:05:31;;;;;;;84.10;22.23;;;;;;;;;;5071869;28;20589;-64
2023/02/15 09:07:58;;;;;;;82.53;19.60;;;;;;;;;;5071681;28;20218;-63
2023/02/15 09:10:25;;;;;;;82.38;20.67;;;;;;;;;;5071529;28;20204;-64
2023/02/15 09:12:54;;;;;;;82.75;20.35;;;;;;;;;;5071459;28;20681;-64
2023/02/15 09:15:21;;;;;;;81.40;20.08;;;;;;;;;;5071324;28;20226;-64
2023/02/15 09:17:48;;;;;;;79.47;18.77;;;;;;;;;;5071512;28;20710;-64
2023/02/15 09:20:15;;;;;;;81.00;19.95;;;;;;;;;;5071360;28;20203;-63
2023/02/15 09:22:42;;;;;;;78.63;18.70;;;;;;;;;;5071389;28;20280;-63
2023/02/15 09:25:09;;;;;;;82.72;20.42;;;;;;;;;;5071443;28;20232;-63
2023/02/15 09:27:38;;;;;;;77.20;18.95;;;;;;;;;;5071412;28;20703;-64
2023/02/15 09:30:07;;;;;;;77.72;19.30;;;;;;;;;;5070975;28;20247;-63
2023/02/15 09:32:34;;;;;;;77.05;17.73;;;;;;;;;;5071606;28;20680;-64
2023/02/15 09:35:01;;;;;;;77.20;17.40;;;;;;;;;;5071306;28;20235;-64
2023/02/15 09:37:28;;;;;;;77.05;16.95;;;;;;;;;;5071296;28;20615;-64
2023/02/15 09:39:56;;;;;;;76.47;17.25;;;;;;;;;;5071148;28;20565;-63
2023/02/15 09:42:43;;;;;;;73.10;15.45;;;;;;;;;;5071224;28;20205;-64
2023/02/15 09:45:27;;;;;;;76.68;18.70;;;;;;;;;;5071444;28;20590;-64
2023/02/15 09:48:03;;;;;;;75.28;15.95;;;;;;;;;;5071527;28;20211;-66
2023/02/15 09:50:34;;;;;;;76.10;16.83;;;;;;;;;;5071122;28;20212;-64
2023/02/15 09:53:07;;;;;;;80.38;18.02;;;;;;;;;;5068492;28;20496;-64
2023/02/15 09:55:42;;;;;;;77.82;18.33;;;;;;;;;;5071266;28;20601;-65
2023/02/15 09:58:12;;;;;;;78.32;18.38;;;;;;;;;;5073991;28;20416;-64
2023/02/15 10:00:44;;;;;;;77.80;18.17;;;;;;;;;;5073517;28;20213;-64
2023/02/15 10:03:18;;;;;;;72.97;14.93;;;;;;;;;;5073715;28;20943;-64
2023/02/15 10:05:51;;;;;;;73.50;15.37;;;;;;;;;;5073554;28;20463;-64
2023/02/15 10:08:33;;;;;;;71.90;14.90;;;;;;;;;;5073663;28;20474;-64
2023/02/15 10:11:38;;;;;;;69.77;13.70;;;;;;;;;;5074173;28;20483;-64
2023/02/15 10:13:58;;;;;;;72.00;15.10;;;;;;;;;;5074208;28;20447;-64
2023/02/15 10:16:32;;;;;;;73.73;15.10;;;;;;;;;;5074628;28;20483;-64
2023/02/15 10:19:05;;;;;;;71.67;15.80;;;;;;;;;;5073983;28;20451;-64
2023/02/15 10:21:40;;;;;;;72.73;15.50;;;;;;;;;;5074391;28;20458;-64
2023/02/15 10:24:14;;;;;;;73.30;16.20;;;;;;;;;;5074136;28;20479;-64
2023/02/15 10:26:44;;;;;;;72.17;15.33;;;;;;;;;;5074365;28;20476;-64
2023/02/15 10:29:18;;;;;;;74.60;16.40;;;;;;;;;;5073971;28;20898;-64
2023/02/15 10:31:50;;;;;;;72.77;15.93;;;;;;;;;;5074315;28;20455;-64
2023/02/15 10:34:18;;;;;;;76.70;17.13;;;;;;;;;;5074498;28;20830;-64
2023/02/15 10:37:04;;;;;;;73.87;16.20;;;;;;;;;;5074008;28;20983;-64
2023/02/15 10:39:35;;;;;;;73.13;16.27;;;;;;;;;;5073915;28;20458;-64
2023/02/15 10:42:06;;;;;;;73.83;15.80;;;;;;;;;;5074289;28;20819;-64
2023/02/15 10:44:39;;;;;;;74.30;17.30;;;;;;;;;;5074072;28;20475;-64
2023/02/15 10:47:18;;;;;;;74.90;17.20;;;;;;;;;;5074002;28;20454;-64
2023/02/15 10:50:03;;;;;;;73.70;16.43;;;;;;;;;;5073794;28;20452;-64
2023/02/15 10:52:37;;;;;;;75.63;18.20;;;;;;;;;;5073670;28;20451;-64
2023/02/15 10:55:09;;;;;;;76.97;18.27;;;;;;;;;;5073715;28;20459;-64
2023/02/15 10:57:43;;;;;;;75.00;15.93;;;;;;;;;;5073800;28;20448;-65
2023/02/15 11:00:15;;;;;;;73.77;17.23;;;;;;;;;;5073649;28;20443;-64
2023/02/15 11:02:51;;;;;;;71.93;15.70;;;;;;;;;;5073611;28;20968;-64
2023/02/15 11:05:29;;;;;;;72.00;16.57;;;;;;;;;;5073538;28;20558;-64
2023/02/15 11:07:59;;;;;;;72.60;16.43;;;;;;;;;;5072616;28;20447;-64
2023/02/15 11:10:29;;;;;;;74.97;17.20;;;;;;;;;;5073562;28;20486;-65
2023/02/15 11:12:58;;;;;;;73.03;17.13;;;;;;;;;;5073595;28;20447;-62
2023/02/15 11:15:27;;;;;;;76.73;19.00;;;;;;;;;;5073423;28;20851;-65
2023/02/15 11:17:58;;;;;;;71.40;15.70;;;;;;;;;;5073472;28;20839;-64
2023/02/15 11:20:27;;;;;;;71.80;15.47;;;;;;;;;;5072898;28;20474;-65
2023/02/15 11:22:55;;;;;;;70.73;16.57;;;;;;;;;;5073299;28;20455;-65
2023/02/15 11:25:24;;;;;;;72.73;17.23;;;;;;;;;;5073009;28;21044;-65
2023/02/15 11:27:52;;;;;;;70.20;16.53;;;;;;;;;;5073099;28;20455;-65
2023/02/15 11:30:23;;;;;;;69.70;16.77;;;;;;;;;;5072739;28;20944;-62
2023/02/15 11:32:51;;;;;;;72.77;17.10;;;;;;;;;;5072908;28;20457;-65
2023/02/15 11:35:26;;;;;;;73.03;16.77;;;;;;;;;;5073131;28;20493;-65
2023/02/15 11:37:56;;;;;;;72.67;17.63;;;;;;;;;;5073344;28;20455;-65
2023/02/15 11:40:25;;;;;;;72.90;17.97;;;;;;;;;;5072902;28;20819;-67
2023/02/15 11:42:55;;;;;;;75.30;17.50;;;;;;;;;;5073125;28;20443;-64
2023/02/15 11:45:27;;;;;;;75.17;20.67;;;;;;;;;;5072919;28;20463;-65
2023/02/15 11:47:54;;;;;;;71.97;16.83;;;;;;;;;;5073220;28;20451;-65
2023/02/15 11:50:23;;;;;;;73.20;16.50;;;;;;;;;;5072859;28;20458;-65
2023/02/15 11:52:52;;;;;;;71.10;17.10;;;;;;;;;;5072943;28;20447;-65
2023/02/15 11:55:21;;;;;;;70.70;17.00;;;;;;;;;;5072871;28;20507;-64
2023/02/15 11:57:52;;;;;;;70.47;17.07;;;;;;;;;;5072756;28;20454;-64
2023/02/15 12:00:26;;;;;;;74.67;16.90;;;;;;;;;;5072679;28;20542;-64
2023/02/15 12:02:54;;;;;;;73.30;17.03;;;;;;;;;;5072959;28;20444;-64
2023/02/15 12:05:23;;;;;;;71.07;17.67;;;;;;;;;;5072556;28;20509;-64
2023/02/15 12:07:53;;;;;;;72.17;17.40;;;;;;;;;;5072626;28;20447;-64
2023/02/15 12:10:24;;;;;;;75.47;18.53;;;;;;;;;;5072281;28;20962;-64
2023/02/15 12:13:09;;;;;;;72.13;17.13;;;;;;;;;;5072688;28;20542;-64
2023/02/15 12:15:37;;;;;;;73.23;17.87;;;;;;;;;;5072464;28;20491;-65
2023/02/15 12:18:05;;;;;;;70.77;17.73;;;;;;;;;;5072240;28;20455;-64
2023/02/15 12:20:34;;;;;;;72.60;17.87;;;;;;;;;;5072156;28;20966;-64
2023/02/15 12:23:04;;;;;;;70.40;17.33;;;;;;;;;;5072133;28;20459;-65
2023/02/15 12:25:35;;;;;;;72.63;17.57;;;;;;;;;;5072117;28;20471;-65
2023/02/15 12:28:02;;;;;;;71.90;18.23;;;;;;;;;;5072351;28;20452;-65
2023/02/15 12:30:31;;;;;;;72.57;18.73;;;;;;;;;;5072035;28;20450;-65
2023/02/15 12:33:00;;;;;;;74.17;18.37;;;;;;;;;;5072237;28;20451;-65
2023/02/15 12:35:29;;;;;;;69.77;17.70;;;;;;;;;;5071731;28;20861;-65
2023/02/15 12:37:57;;;;;;;72.50;20.33;;;;;;;;;;5071734;28;20457;-64
2023/02/15 12:40:27;;;;;;;73.90;20.97;;;;;;;;;;5071957;28;20450;-65
2023/02/15 12:42:54;;;;;;;71.80;19.40;;;;;;;;;;5071954;28;20443;-65
2023/02/15 12:45:24;;;;;;;72.53;19.60;;;;;;;;;;5071401;28;20475;-63
2023/02/15 12:48:09;;;;;;;75.60;19.17;;;;;;;;;;5071427;28;20504;-63
2023/02/15 12:50:36;;;;;;;70.70;19.17;;;;;;;;;;5071248;28;20938;-63
2023/02/15 12:53:14;;;;;;;69.07;17.90;;;;;;;;;;5071645;28;20461;-63
2023/02/15 12:55:50;;;;;;;71.60;20.23;;;;;;;;;;5071660;28;20467;-63
2023/02/15 12:58:18;;;;;;;71.97;18.87;;;;;;;;;;5072290;28;20453;-63
2023/02/15 13:00:46;;;;;;;70.80;19.37;;;;;;;;;;5071598;28;20577;-63
2023/02/15 13:03:18;;;;;;;71.37;18.53;;;;;;;;;;5071619;28;20816;-63
2023/02/15 13:05:46;;;;;;;73.70;19.27;;;;;;;;;;5071633;28;20471;-63
2023/02/15 13:08:14;;;;;;;71.70;18.37;;;;;;;;;;5071552;28;20452;-64
2023/02/15 13:10:43;;;;;;;70.77;18.50;;;;;;;;;;5071264;28;20962;-63
2023/02/15 13:13:11;;;;;;;70.47;17.07;;;;;;;;;;5071385;28;20455;-63
2023/02/15 13:15:40;;;;;;;70.03;18.53;;;;;;;;;;5071604;28;20467;-63
2023/02/15 13:18:12;;;;;;;71.70;18.93;;;;;;;;;;5071246;28;20943;-62
2023/02/15 13:20:40;;;;;;;70.50;17.60;;;;;;;;;;5071358;28;20835;-63
2023/02/15 13:23:12;;;;;;;71.47;18.53;;;;;;;;;;5071336;28;20451;-63
2023/02/15 13:25:42;;;;;;;74.10;18.93;;;;;;;;;;5071515;28;20463;-62
2023/02/15 13:28:14;;;;;;;67.87;16.50;;;;;;;;;;5071515;28;20612;-64
2023/02/15 13:30:45;;;;;;;70.90;17.77;;;;;;;;;;5073104;28;20950;-63
2023/02/15 13:33:14;;;;;;;71.57;17.30;;;;;;;;;;5075412;28;20453;-63
2023/02/15 13:35:44;;;;;;;70.27;17.97;;;;;;;;;;5075075;28;20991;-63
2023/02/15 13:38:19;;;;;;;70.47;16.73;;;;;;;;;;5075454;28;20453;-64
2023/02/15 13:40:50;;;;;;;70.83;17.33;;;;;;;;;;5075161;28;20443;-64
2023/02/15 13:43:22;;;;;;;71.20;18.13;;;;;;;;;;5075358;28;20524;-64
2023/02/15 13:45:58;;;;;;;73.97;17.83;;;;;;;;;;5074916;28;20477;-64
2023/02/15 13:48:30;;;;;;;73.03;17.40;;;;;;;;;;5074798;28;20939;-63
2023/02/15 13:51:04;;;;;;;69.40;17.33;;;;;;;;;;5075091;28;20447;-64
2023/02/15 13:53:38;;;;;;;71.40;17.90;;;;;;;;;;5074921;28;20958;-64
2023/02/15 13:56:07;;;;;;;70.03;17.30;;;;;;;;;;5075084;28;20439;-64
2023/02/15 13:58:49;;;;;;;72.00;17.27;;;;;;;;;;5074410;28;20552;-63
2023/02/15 14:01:20;;;;;;;71.10;16.77;;;;;;;;;;5074926;28;20455;-64
2023/02/15 14:03:53;;;;;;;70.73;17.70;;;;;;;;;;5074995;28;20473;-64
2023/02/15 14:06:27;;;;;;;72.60;17.93;;;;;;;;;;5074870;28;20475;-64
2023/02/15 14:09:01;;;;;;;70.63;17.50;;;;;;;;;;5074360;28;20462;-64
2023/02/15 14:11:32;;;;;;;72.20;17.80;;;;;;;;;;5074663;28;20455;-63
2023/02/15 14:14:31;;;;;;;68.90;15.50;;;;;;;;;;5074721;28;20915;-64
2023/02/15 14:17:03;;;;;;;70.13;17.03;;;;;;;;;;5074467;28;20948;-64
2023/02/15 14:19:35;;;;;;;69.97;17.73;;;;;;;;;;5074021;28;20455;-64
2023/02/15 14:22:08;;;;;;;73.60;17.20;;;;;;;;;;5074675;28;20451;-64
2023/02/15 14:24:38;;;;;;;70.47;16.37;;;;;;;;;;5074227;28;20543;-64
2023/02/15 14:27:12;;;;;;;71.47;18.43;;;;;;;;;;5074365;28;20483;-63
2023/02/15 14:29:48;;;;;;;70.00;17.60;;;;;;;;;;5073932;28;20970;-63
2023/02/15 14:32:18;;;;;;;70.17;17.70;;;;;;;;;;5073833;28;20457;-63
2023/02/15 14:34:48;;;;;;;74.17;17.37;;;;;;;;;;5074306;28;20471;-63
2023/02/15 14:37:19;;;;;;;69.57;16.90;;;;;;;;;;5074119;28;20477;-64
2023/02/15 14:42:37;;;;;;;74.10;18.30;;;;;;;;;;5072631;28;20419;-63
2023/02/15 14:45:15;;;;;;;71.80;16.33;;;;;;;;;;5074075;28;20467;-63
2023/02/15 14:47:44;;;;;;;72.37;16.90;;;;;;;;;;5073969;28;20491;-63
2023/02/15 14:50:29;;;;;;;75.70;18.77;;;;;;;;;;5073607;28;20827;-63
2023/02/15 14:53:16;;;;;;;71.60;17.90;;;;;;;;;;5073829;28;20447;-64
2023/02/15 14:55:43;;;;;;;72.50;18.60;;;;;;;;;;5073855;28;20463;-63
2023/02/15 14:58:12;;;;;;;75.90;19.27;;;;;;;;;;5073697;28;20443;-63
2023/02/15 15:00:41;;;;;;;76.80;18.50;;;;;;;;;;5073394;28;20454;-63
2023/02/15 15:03:21;;;;;;;75.87;19.00;;;;;;;;;;5073648;28;20443;-64
2023/02/15 15:05:50;;;;;;;72.77;18.20;;;;;;;;;;5073763;28;20873;-63